sensor_id;sensor_type;location;lat;lon;timestamp;P1;durP1;ratioP1;P2;durP2;ratioP2
21120;SDS011;12519;43.318;21.898;2023-07-13T00:04:09;9.0;;;8.0;;
21120;SDS011;12519;43.318;21.898;2023-07-13T00:08:46;10.0;;;8.0;;
21120;SDS011;12519;43.318;21.898;2023-07-13T00:13:23;10.0;;;8.0;;
21120;SDS011;12519;43.318;21.898;2023-07-13T00:17:59;10.0;;;8.0;;
21120;SDS011;12519;43.318;21.898;2023-07-13T00:22:37;10.0;;;8.0;;
21120;SDS011;12519;43.318;21.898;2023-07-13T00:27:14;10.0;;;8.0;;
21120;SDS011;12519;43.318;21.898;2023-07-13T00:31:51;9.0;;;7.0;;
21120;SDS011;12519;43.318;21.898;2023-07-13T00:36:27;9.0;;;7.0;;
21120;SDS011;12519;43.318;21.898;2023-07-13T00:41:04;8.0;;;7.0;;
21120;SDS011;12519;43.318;21.898;2023-07-13T00:46:46;8.0;;;7.0;;
21120;SDS011;12519;43.318;21.898;2023-07-13T00:51:39;7.0;;;7.0;;
21120;SDS011;12519;43.318;21.898;2023-07-13T00:56:19;7.0;;;7.0;;
21120;SDS011;12519;43.318;21.898;2023-07-13T01:00:56;10.0;;;7.0;;
21120;SDS011;12519;43.318;21.898;2023-07-13T01:05:36;10.0;;;7.0;;
21120;SDS011;12519;43.318;21.898;2023-07-13T01:10:15;12.0;;;7.0;;
21120;SDS011;12519;43.318;21.898;2023-07-13T01:15:01;12.0;;;7.0;;
21120;SDS011;12519;43.318;21.898;2023-07-13T01:20:12;12.0;;;7.0;;
21120;SDS011;12519;43.318;21.898;2023-07-13T01:24:49;12.0;;;7.0;;
21120;SDS011;12519;43.318;21.898;2023-07-13T01:38:42;7.0;;;7.0;;
21120;SDS011;12519;43.318;21.898;2023-07-13T01:43:20;7.0;;;7.0;;
21120;SDS011;12519;43.318;21.898;2023-07-13T01:47:58;7.0;;;7.0;;
21120;SDS011;12519;43.318;21.898;2023-07-13T01:52:34;7.0;;;7.0;;
21120;SDS011;12519;43.318;21.898;2023-07-13T01:57:11;7.0;;;7.0;;
21120;SDS011;12519;43.318;21.898;2023-07-13T02:01:48;7.0;;;7.0;;
21120;SDS011;12519;43.318;21.898;2023-07-13T02:06:24;7.0;;;7.0;;
21120;SDS011;12519;43.318;21.898;2023-07-13T02:20:16;8.0;;;7.0;;
21120;SDS011;12519;43.318;21.898;2023-07-13T02:24:53;8.0;;;7.0;;
21120;SDS011;12519;43.318;21.898;2023-07-13T02:29:30;8.0;;;7.0;;
21120;SDS011;12519;43.318;21.898;2023-07-13T02:34:07;8.0;;;7.0;;
21120;SDS011;12519;43.318;21.898;2023-07-13T02:38:44;9.0;;;8.0;;
21120;SDS011;12519;43.318;21.898;2023-07-13T02:43:20;9.0;;;8.0;;
21120;SDS011;12519;43.318;21.898;2023-07-13T02:47:58;10.0;;;8.0;;
21120;SDS011;12519;43.318;21.898;2023-07-13T02:52:35;10.0;;;8.0;;
21120;SDS011;12519;43.318;21.898;2023-07-13T02:57:11;10.0;;;8.0;;
21120;SDS011;12519;43.318;21.898;2023-07-13T03:01:48;10.0;;;8.0;;
21120;SDS011;12519;43.318;21.898;2023-07-13T03:06:25;10.0;;;8.0;;
21120;SDS011;12519;43.318;21.898;2023-07-13T03:38:59;8.0;;;7.0;;
21120;SDS011;12519;43.318;21.898;2023-07-13T03:43:37;8.0;;;7.0;;
21120;SDS011;12519;43.318;21.898;2023-07-13T03:48:15;8.0;;;7.0;;
21120;SDS011;12519;43.318;21.898;2023-07-13T03:52:51;8.0;;;7.0;;
21120;SDS011;12519;43.318;21.898;2023-07-13T03:57:29;8.0;;;7.0;;
21120;SDS011;12519;43.318;21.898;2023-07-13T04:02:07;10.0;;;8.0;;
21120;SDS011;12519;43.318;21.898;2023-07-13T04:06:44;10.0;;;8.0;;
21120;SDS011;12519;43.318;21.898;2023-07-13T04:11:31;12.0;;;10.0;;
21120;SDS011;12519;43.318;21.898;2023-07-13T04:16:09;12.0;;;10.0;;
21120;SDS011;12519;43.318;21.898;2023-07-13T04:20:49;12.0;;;10.0;;
21120;SDS011;12519;43.318;21.898;2023-07-13T04:25:28;12.0;;;10.0;;
21120;SDS011;12519;43.318;21.898;2023-07-13T04:30:10;11.0;;;10.0;;
21120;SDS011;12519;43.318;21.898;2023-07-13T04:34:47;11.0;;;10.0;;
21120;SDS011;12519;43.318;21.898;2023-07-13T04:39:23;14.0;;;12.0;;
21120;SDS011;12519;43.318;21.898;2023-07-13T04:44:00;14.0;;;12.0;;
21120;SDS011;12519;43.318;21.898;2023-07-13T04:48:37;16.0;;;15.0;;
21120;SDS011;12519;43.318;21.898;2023-07-13T04:53:15;16.0;;;15.0;;
21120;SDS011;12519;43.318;21.898;2023-07-13T04:57:51;16.0;;;15.0;;
21120;SDS011;12519;43.318;21.898;2023-07-13T05:02:27;16.0;;;15.0;;
21120;SDS011;12519;43.318;21.898;2023-07-13T05:07:06;16.0;;;15.0;;
21120;SDS011;12519;43.318;21.898;2023-07-13T05:39:32;17.0;;;15.0;;
21120;SDS011;12519;43.318;21.898;2023-07-13T05:44:09;17.0;;;15.0;;
21120;SDS011;12519;43.318;21.898;2023-07-13T05:48:45;17.0;;;15.0;;
21120;SDS011;12519;43.318;21.898;2023-07-13T05:53:22;17.0;;;15.0;;
21120;SDS011;12519;43.318;21.898;2023-07-13T05:58:01;17.0;;;15.0;;
21120;SDS011;12519;43.318;21.898;2023-07-13T06:02:38;16.0;;;14.0;;
21120;SDS011;12519;43.318;21.898;2023-07-13T06:07:15;16.0;;;14.0;;
21120;SDS011;12519;43.318;21.898;2023-07-13T06:11:51;16.0;;;13.0;;
21120;SDS011;12519;43.318;21.898;2023-07-13T06:16:27;16.0;;;13.0;;
21120;SDS011;12519;43.318;21.898;2023-07-13T06:21:12;14.0;;;12.0;;
21120;SDS011;12519;43.318;21.898;2023-07-13T06:25:58;14.0;;;12.0;;
21120;SDS011;12519;43.318;21.898;2023-07-13T06:30:38;13.0;;;10.0;;
21120;SDS011;12519;43.318;21.898;2023-07-13T06:35:16;13.0;;;10.0;;
21120;SDS011;12519;43.318;21.898;2023-07-13T06:39:53;12.0;;;10.0;;
21120;SDS011;12519;43.318;21.898;2023-07-13T06:44:30;12.0;;;10.0;;
21120;SDS011;12519;43.318;21.898;2023-07-13T06:49:09;10.0;;;9.0;;
21120;SDS011;12519;43.318;21.898;2023-07-13T06:53:46;10.0;;;9.0;;
21120;SDS011;12519;43.318;21.898;2023-07-13T06:58:24;10.0;;;9.0;;
21120;SDS011;12519;43.318;21.898;2023-07-13T07:03:01;12.0;;;10.0;;
21120;SDS011;12519;43.318;21.898;2023-07-13T07:07:39;12.0;;;10.0;;
21120;SDS011;12519;43.318;21.898;2023-07-13T07:12:15;13.0;;;10.0;;
21120;SDS011;12519;43.318;21.898;2023-07-13T07:16:52;13.0;;;10.0;;
21120;SDS011;12519;43.318;21.898;2023-07-13T07:21:28;12.0;;;10.0;;
21120;SDS011;12519;43.318;21.898;2023-07-13T07:26:05;12.0;;;10.0;;
21120;SDS011;12519;43.318;21.898;2023-07-13T07:30:42;11.0;;;10.0;;
21120;SDS011;12519;43.318;21.898;2023-07-13T07:35:19;11.0;;;10.0;;
21120;SDS011;12519;43.318;21.898;2023-07-13T07:39:55;11.0;;;10.0;;
21120;SDS011;12519;43.318;21.898;2023-07-13T07:44:32;11.0;;;10.0;;
21120;SDS011;12519;43.318;21.898;2023-07-13T07:49:10;11.0;;;10.0;;
21120;SDS011;12519;43.318;21.898;2023-07-13T07:53:48;11.0;;;10.0;;
21120;SDS011;12519;43.318;21.898;2023-07-13T07:58:24;11.0;;;10.0;;
21120;SDS011;12519;43.318;21.898;2023-07-13T08:03:02;14.0;;;11.0;;
21120;SDS011;12519;43.318;21.898;2023-07-13T08:07:40;14.0;;;11.0;;
21120;SDS011;12519;43.318;21.898;2023-07-13T08:12:17;18.0;;;12.0;;
21120;SDS011;12519;43.318;21.898;2023-07-13T08:16:53;18.0;;;12.0;;
21120;SDS011;12519;43.318;21.898;2023-07-13T08:21:30;15.0;;;12.0;;
21120;SDS011;12519;43.318;21.898;2023-07-13T08:26:08;15.0;;;12.0;;
21120;SDS011;12519;43.318;21.898;2023-07-13T08:30:45;12.0;;;11.0;;
21120;SDS011;12519;43.318;21.898;2023-07-13T08:35:22;12.0;;;11.0;;
21120;SDS011;12519;43.318;21.898;2023-07-13T08:39:58;14.0;;;12.0;;
21120;SDS011;12519;43.318;21.898;2023-07-13T08:45:06;14.0;;;12.0;;
21120;SDS011;12519;43.318;21.898;2023-07-13T08:49:48;15.0;;;12.0;;
21120;SDS011;12519;43.318;21.898;2023-07-13T08:54:38;15.0;;;12.0;;
21120;SDS011;12519;43.318;21.898;2023-07-13T08:59:31;14.0;;;10.0;;
21120;SDS011;12519;43.318;21.898;2023-07-13T09:04:25;14.0;;;10.0;;
21120;SDS011;12519;43.318;21.898;2023-07-13T09:10:02;14.0;;;9.0;;
21120;SDS011;12519;43.318;21.898;2023-07-13T09:15:26;14.0;;;9.0;;
21120;SDS011;12519;43.318;21.898;2023-07-13T09:20:34;12.0;;;8.0;;
21120;SDS011;12519;43.318;21.898;2023-07-13T09:25:38;12.0;;;8.0;;
21120;SDS011;12519;43.318;21.898;2023-07-13T09:30:51;9.0;;;8.0;;
21120;SDS011;12519;43.318;21.898;2023-07-13T09:35:42;9.0;;;8.0;;
21120;SDS011;12519;43.318;21.898;2023-07-13T09:40:44;8.0;;;8.0;;
21120;SDS011;12519;43.318;21.898;2023-07-13T09:45:52;8.0;;;8.0;;
21120;SDS011;12519;43.318;21.898;2023-07-13T09:50:29;8.0;;;7.0;;
21120;SDS011;12519;43.318;21.898;2023-07-13T09:55:31;8.0;;;7.0;;
21120;SDS011;12519;43.318;21.898;2023-07-13T10:00:28;8.0;;;8.0;;
21120;SDS011;12519;43.318;21.898;2023-07-13T10:05:14;8.0;;;8.0;;
21120;SDS011;12519;43.318;21.898;2023-07-13T10:09:53;9.0;;;8.0;;
21120;SDS011;12519;43.318;21.898;2023-07-13T10:14:30;9.0;;;8.0;;
21120;SDS011;12519;43.318;21.898;2023-07-13T10:19:24;11.0;;;8.0;;
21120;SDS011;12519;43.318;21.898;2023-07-13T10:24:22;11.0;;;8.0;;
21120;SDS011;12519;43.318;21.898;2023-07-13T10:29:16;13.0;;;8.0;;
21120;SDS011;12519;43.318;21.898;2023-07-13T10:33:56;13.0;;;8.0;;
21120;SDS011;12519;43.318;21.898;2023-07-13T10:38:33;13.0;;;8.0;;
21120;SDS011;12519;43.318;21.898;2023-07-13T10:43:33;11.0;;;8.0;;
21120;SDS011;12519;43.318;21.898;2023-07-13T10:48:22;11.0;;;8.0;;
21120;SDS011;12519;43.318;21.898;2023-07-13T10:53:22;9.0;;;8.0;;
21120;SDS011;12519;43.318;21.898;2023-07-13T10:58:22;9.0;;;8.0;;
21120;SDS011;12519;43.318;21.898;2023-07-13T11:03:20;10.0;;;9.0;;
21120;SDS011;12519;43.318;21.898;2023-07-13T11:08:32;10.0;;;9.0;;
21120;SDS011;12519;43.318;21.898;2023-07-13T11:13:59;11.0;;;10.0;;
21120;SDS011;12519;43.318;21.898;2023-07-13T11:18:36;11.0;;;10.0;;
21120;SDS011;12519;43.318;21.898;2023-07-13T11:23:31;14.0;;;11.0;;
21120;SDS011;12519;43.318;21.898;2023-07-13T11:28:25;14.0;;;11.0;;
21120;SDS011;12519;43.318;21.898;2023-07-13T11:33:21;16.0;;;12.0;;
21120;SDS011;12519;43.318;21.898;2023-07-13T11:37:59;16.0;;;12.0;;
21120;SDS011;12519;43.318;21.898;2023-07-13T11:42:38;14.0;;;11.0;;
21120;SDS011;12519;43.318;21.898;2023-07-13T11:47:23;14.0;;;11.0;;
21120;SDS011;12519;43.318;21.898;2023-07-13T11:52:01;11.0;;;10.0;;
21120;SDS011;12519;43.318;21.898;2023-07-13T11:56:42;11.0;;;10.0;;
21120;SDS011;12519;43.318;21.898;2023-07-13T12:01:30;12.0;;;10.0;;
21120;SDS011;12519;43.318;21.898;2023-07-13T12:06:30;12.0;;;10.0;;
21120;SDS011;12519;43.318;21.898;2023-07-13T12:11:18;13.0;;;10.0;;
21120;SDS011;12519;43.318;21.898;2023-07-13T12:15:57;13.0;;;10.0;;
21120;SDS011;12519;43.318;21.898;2023-07-13T12:20:39;12.0;;;10.0;;
21120;SDS011;12519;43.318;21.898;2023-07-13T12:25:19;12.0;;;10.0;;
21120;SDS011;12519;43.318;21.898;2023-07-13T12:30:30;12.0;;;11.0;;
21120;SDS011;12519;43.318;21.898;2023-07-13T12:35:17;12.0;;;11.0;;
21120;SDS011;12519;43.318;21.898;2023-07-13T12:39:54;13.0;;;11.0;;
21120;SDS011;12519;43.318;21.898;2023-07-13T12:44:32;13.0;;;11.0;;
21120;SDS011;12519;43.318;21.898;2023-07-13T12:49:15;14.0;;;11.0;;
21120;SDS011;12519;43.318;21.898;2023-07-13T12:54:16;14.0;;;11.0;;
21120;SDS011;12519;43.318;21.898;2023-07-13T12:59:04;14.0;;;11.0;;
21120;SDS011;12519;43.318;21.898;2023-07-13T13:03:51;13.0;;;10.0;;
21120;SDS011;12519;43.318;21.898;2023-07-13T13:08:35;13.0;;;10.0;;
21120;SDS011;12519;43.318;21.898;2023-07-13T13:13:12;12.0;;;10.0;;
21120;SDS011;12519;43.318;21.898;2023-07-13T13:17:48;12.0;;;10.0;;
21120;SDS011;12519;43.318;21.898;2023-07-13T13:22:25;14.0;;;10.0;;
21120;SDS011;12519;43.318;21.898;2023-07-13T13:27:03;14.0;;;10.0;;
21120;SDS011;12519;43.318;21.898;2023-07-13T13:31:43;15.0;;;10.0;;
21120;SDS011;12519;43.318;21.898;2023-07-13T13:36:23;15.0;;;10.0;;
21120;SDS011;12519;43.318;21.898;2023-07-13T13:40:59;12.0;;;10.0;;
21120;SDS011;12519;43.318;21.898;2023-07-13T13:45:36;12.0;;;10.0;;
21120;SDS011;12519;43.318;21.898;2023-07-13T13:50:21;10.0;;;9.0;;
21120;SDS011;12519;43.318;21.898;2023-07-13T13:54:58;10.0;;;9.0;;
21120;SDS011;12519;43.318;21.898;2023-07-13T13:59:34;11.0;;;9.0;;
21120;SDS011;12519;43.318;21.898;2023-07-13T14:04:21;11.0;;;9.0;;
21120;SDS011;12519;43.318;21.898;2023-07-13T14:08:59;11.0;;;9.0;;
21120;SDS011;12519;43.318;21.898;2023-07-13T14:13:49;12.0;;;9.0;;
21120;SDS011;12519;43.318;21.898;2023-07-13T14:18:27;12.0;;;9.0;;
21120;SDS011;12519;43.318;21.898;2023-07-13T14:23:04;12.0;;;9.0;;
21120;SDS011;12519;43.318;21.898;2023-07-13T14:27:49;12.0;;;9.0;;
21120;SDS011;12519;43.318;21.898;2023-07-13T14:32:55;13.0;;;9.0;;
21120;SDS011;12519;43.318;21.898;2023-07-13T14:37:32;13.0;;;9.0;;
21120;SDS011;12519;43.318;21.898;2023-07-13T14:42:11;12.0;;;9.0;;
21120;SDS011;12519;43.318;21.898;2023-07-13T14:46:51;12.0;;;9.0;;
21120;SDS011;12519;43.318;21.898;2023-07-13T14:51:33;10.0;;;9.0;;
21120;SDS011;12519;43.318;21.898;2023-07-13T14:56:12;10.0;;;9.0;;
21120;SDS011;12519;43.318;21.898;2023-07-13T15:00:49;10.0;;;9.0;;
21120;SDS011;12519;43.318;21.898;2023-07-13T15:05:32;10.0;;;9.0;;
21120;SDS011;12519;43.318;21.898;2023-07-13T15:10:21;11.0;;;9.0;;
21120;SDS011;12519;43.318;21.898;2023-07-13T15:15:08;11.0;;;9.0;;
21120;SDS011;12519;43.318;21.898;2023-07-13T15:19:44;10.0;;;9.0;;
21120;SDS011;12519;43.318;21.898;2023-07-13T15:24:21;10.0;;;9.0;;
21120;SDS011;12519;43.318;21.898;2023-07-13T15:28:58;10.0;;;9.0;;
21120;SDS011;12519;43.318;21.898;2023-07-13T15:33:34;10.0;;;9.0;;
21120;SDS011;12519;43.318;21.898;2023-07-13T15:38:23;10.0;;;9.0;;
21120;SDS011;12519;43.318;21.898;2023-07-13T15:43:00;11.0;;;10.0;;
21120;SDS011;12519;43.318;21.898;2023-07-13T15:47:36;11.0;;;10.0;;
21120;SDS011;12519;43.318;21.898;2023-07-13T15:52:23;12.0;;;10.0;;
21120;SDS011;12519;43.318;21.898;2023-07-13T15:57:03;12.0;;;10.0;;
21120;SDS011;12519;43.318;21.898;2023-07-13T16:01:45;12.0;;;10.0;;
21120;SDS011;12519;43.318;21.898;2023-07-13T16:06:33;12.0;;;10.0;;
21120;SDS011;12519;43.318;21.898;2023-07-13T16:11:24;13.0;;;11.0;;
21120;SDS011;12519;43.318;21.898;2023-07-13T16:16:12;13.0;;;11.0;;
21120;SDS011;12519;43.318;21.898;2023-07-13T16:20:50;14.0;;;10.0;;
21120;SDS011;12519;43.318;21.898;2023-07-13T16:25:26;14.0;;;10.0;;
21120;SDS011;12519;43.318;21.898;2023-07-13T16:30:18;14.0;;;10.0;;
21120;SDS011;12519;43.318;21.898;2023-07-13T16:34:59;14.0;;;10.0;;
21120;SDS011;12519;43.318;21.898;2023-07-13T16:39:35;14.0;;;10.0;;
21120;SDS011;12519;43.318;21.898;2023-07-13T16:44:19;13.0;;;10.0;;
21120;SDS011;12519;43.318;21.898;2023-07-13T16:48:56;13.0;;;10.0;;
21120;SDS011;12519;43.318;21.898;2023-07-13T16:53:34;12.0;;;10.0;;
21120;SDS011;12519;43.318;21.898;2023-07-13T16:58:10;12.0;;;10.0;;
21120;SDS011;12519;43.318;21.898;2023-07-13T17:02:48;14.0;;;10.0;;
21120;SDS011;12519;43.318;21.898;2023-07-13T17:07:26;14.0;;;10.0;;
21120;SDS011;12519;43.318;21.898;2023-07-13T17:12:06;17.0;;;10.0;;
21120;SDS011;12519;43.318;21.898;2023-07-13T17:16:50;17.0;;;10.0;;
21120;SDS011;12519;43.318;21.898;2023-07-13T17:21:32;14.0;;;10.0;;
21120;SDS011;12519;43.318;21.898;2023-07-13T17:26:10;14.0;;;10.0;;
21120;SDS011;12519;43.318;21.898;2023-07-13T17:30:54;10.0;;;10.0;;
21120;SDS011;12519;43.318;21.898;2023-07-13T17:35:38;10.0;;;10.0;;
21120;SDS011;12519;43.318;21.898;2023-07-13T17:40:16;10.0;;;10.0;;
21120;SDS011;12519;43.318;21.898;2023-07-13T17:44:53;10.0;;;10.0;;
21120;SDS011;12519;43.318;21.898;2023-07-13T17:49:32;10.0;;;10.0;;
21120;SDS011;12519;43.318;21.898;2023-07-13T17:54:15;11.0;;;10.0;;
21120;SDS011;12519;43.318;21.898;2023-07-13T17:58:53;11.0;;;10.0;;
21120;SDS011;12519;43.318;21.898;2023-07-13T18:03:30;12.0;;;10.0;;
21120;SDS011;12519;43.318;21.898;2023-07-13T18:08:27;12.0;;;10.0;;
21120;SDS011;12519;43.318;21.898;2023-07-13T18:13:07;12.0;;;10.0;;
21120;SDS011;12519;43.318;21.898;2023-07-13T18:17:50;12.0;;;10.0;;
21120;SDS011;12519;43.318;21.898;2023-07-13T18:22:27;12.0;;;10.0;;
21120;SDS011;12519;43.318;21.898;2023-07-13T18:27:06;12.0;;;10.0;;
21120;SDS011;12519;43.318;21.898;2023-07-13T18:31:43;11.0;;;10.0;;
21120;SDS011;12519;43.318;21.898;2023-07-13T18:36:23;11.0;;;10.0;;
21120;SDS011;12519;43.318;21.898;2023-07-13T18:40:59;13.0;;;10.0;;
21120;SDS011;12519;43.318;21.898;2023-07-13T18:45:36;13.0;;;10.0;;
21120;SDS011;12519;43.318;21.898;2023-07-13T18:50:22;15.0;;;11.0;;
21120;SDS011;12519;43.318;21.898;2023-07-13T18:55:18;15.0;;;11.0;;
21120;SDS011;12519;43.318;21.898;2023-07-13T18:59:57;14.0;;;12.0;;
21120;SDS011;12519;43.318;21.898;2023-07-13T19:04:34;14.0;;;12.0;;
21120;SDS011;12519;43.318;21.898;2023-07-13T19:09:12;14.0;;;12.0;;
21120;SDS011;12519;43.318;21.898;2023-07-13T19:13:48;14.0;;;12.0;;
21120;SDS011;12519;43.318;21.898;2023-07-13T19:18:25;14.0;;;12.0;;
21120;SDS011;12519;43.318;21.898;2023-07-13T19:23:24;15.0;;;12.0;;
21120;SDS011;12519;43.318;21.898;2023-07-13T19:28:37;15.0;;;12.0;;
21120;SDS011;12519;43.318;21.898;2023-07-13T19:33:17;16.0;;;13.0;;
21120;SDS011;12519;43.318;21.898;2023-07-13T19:37:54;16.0;;;13.0;;
21120;SDS011;12519;43.318;21.898;2023-07-13T19:42:31;16.0;;;13.0;;
21120;SDS011;12519;43.318;21.898;2023-07-13T19:47:13;16.0;;;13.0;;
21120;SDS011;12519;43.318;21.898;2023-07-13T19:51:53;15.0;;;13.0;;
21120;SDS011;12519;43.318;21.898;2023-07-13T19:56:30;15.0;;;13.0;;
21120;SDS011;12519;43.318;21.898;2023-07-13T20:01:07;18.0;;;15.0;;
21120;SDS011;12519;43.318;21.898;2023-07-13T20:05:44;18.0;;;15.0;;
21120;SDS011;12519;43.318;21.898;2023-07-13T20:10:28;22.0;;;17.0;;
21120;SDS011;12519;43.318;21.898;2023-07-13T20:15:19;22.0;;;17.0;;
21120;SDS011;12519;43.318;21.898;2023-07-13T20:20:30;24.0;;;18.0;;
21120;SDS011;12519;43.318;21.898;2023-07-13T20:25:23;24.0;;;18.0;;
21120;SDS011;12519;43.318;21.898;2023-07-13T20:30:11;26.0;;;18.0;;
21120;SDS011;12519;43.318;21.898;2023-07-13T20:34:49;26.0;;;18.0;;
21120;SDS011;12519;43.318;21.898;2023-07-13T20:39:25;26.0;;;18.0;;
21120;SDS011;12519;43.318;21.898;2023-07-13T20:44:03;22.0;;;16.0;;
21120;SDS011;12519;43.318;21.898;2023-07-13T20:48:44;22.0;;;16.0;;
21120;SDS011;12519;43.318;21.898;2023-07-13T20:53:21;18.0;;;14.0;;
21120;SDS011;12519;43.318;21.898;2023-07-13T20:57:57;18.0;;;14.0;;
21120;SDS011;12519;43.318;21.898;2023-07-13T21:02:34;17.0;;;14.0;;
21120;SDS011;12519;43.318;21.898;2023-07-13T21:07:20;17.0;;;14.0;;
21120;SDS011;12519;43.318;21.898;2023-07-13T21:11:59;16.0;;;13.0;;
21120;SDS011;12519;43.318;21.898;2023-07-13T21:16:36;16.0;;;13.0;;
21120;SDS011;12519;43.318;21.898;2023-07-13T21:21:23;16.0;;;13.0;;
21120;SDS011;12519;43.318;21.898;2023-07-13T21:26:07;16.0;;;13.0;;
21120;SDS011;12519;43.318;21.898;2023-07-13T21:30:46;16.0;;;13.0;;
21120;SDS011;12519;43.318;21.898;2023-07-13T21:35:36;16.0;;;13.0;;
21120;SDS011;12519;43.318;21.898;2023-07-13T21:40:23;16.0;;;13.0;;
21120;SDS011;12519;43.318;21.898;2023-07-13T21:45:24;16.0;;;13.0;;
21120;SDS011;12519;43.318;21.898;2023-07-13T21:50:07;16.0;;;13.0;;
21120;SDS011;12519;43.318;21.898;2023-07-13T21:54:45;16.0;;;13.0;;
21120;SDS011;12519;43.318;21.898;2023-07-13T21:59:28;16.0;;;13.0;;
21120;SDS011;12519;43.318;21.898;2023-07-13T22:04:21;20.0;;;14.0;;
21120;SDS011;12519;43.318;21.898;2023-07-13T22:08:59;20.0;;;14.0;;
21120;SDS011;12519;43.318;21.898;2023-07-13T22:13:36;23.0;;;15.0;;
21120;SDS011;12519;43.318;21.898;2023-07-13T22:18:21;23.0;;;15.0;;
21120;SDS011;12519;43.318;21.898;2023-07-13T22:22:58;22.0;;;15.0;;
21120;SDS011;12519;43.318;21.898;2023-07-13T22:27:35;22.0;;;15.0;;
21120;SDS011;12519;43.318;21.898;2023-07-13T22:32:12;20.0;;;15.0;;
21120;SDS011;12519;43.318;21.898;2023-07-13T22:36:50;23.0;;;16.0;;
21120;SDS011;12519;43.318;21.898;2023-07-13T22:41:27;23.0;;;16.0;;
21120;SDS011;12519;43.318;21.898;2023-07-13T22:46:05;23.0;;;16.0;;
21120;SDS011;12519;43.318;21.898;2023-07-13T22:50:58;26.0;;;16.0;;
21120;SDS011;12519;43.318;21.898;2023-07-13T22:55:35;26.0;;;16.0;;
21120;SDS011;12519;43.318;21.898;2023-07-13T23:00:19;20.0;;;15.0;;
21120;SDS011;12519;43.318;21.898;2023-07-13T23:04:56;20.0;;;15.0;;
21120;SDS011;12519;43.318;21.898;2023-07-13T23:09:33;15.0;;;14.0;;
21120;SDS011;12519;43.318;21.898;2023-07-13T23:14:10;15.0;;;14.0;;
21120;SDS011;12519;43.318;21.898;2023-07-13T23:18:49;15.0;;;14.0;;
21120;SDS011;12519;43.318;21.898;2023-07-13T23:23:26;15.0;;;14.0;;
21120;SDS011;12519;43.318;21.898;2023-07-13T23:28:04;15.0;;;14.0;;
21120;SDS011;12519;43.318;21.898;2023-07-13T23:32:40;15.0;;;14.0;;
21120;SDS011;12519;43.318;21.898;2023-07-13T23:37:17;14.0;;;13.0;;
21120;SDS011;12519;43.318;21.898;2023-07-13T23:41:54;14.0;;;13.0;;
21120;SDS011;12519;43.318;21.898;2023-07-13T23:46:47;14.0;;;12.0;;
21120;SDS011;12519;43.318;21.898;2023-07-13T23:51:30;14.0;;;12.0;;
21120;SDS011;12519;43.318;21.898;2023-07-13T23:56:22;14.0;;;12.0;;
